Flight Track Log - Related Links

Times and Time Zones

All times are in EDT time to prevent confusion due to time zone crossing. See the EJA922 flight status page for this flight to view local times or setup timezone preferences in your user account.

Time Position Orientation Groundspeed Altitude Reporting Facility
EDT Latitude Longitude Course Direction KTS MPH feet Rate Location/Type
18:45 37.6333 -122.4167 122° Southeast 188 216 2,600  Level Northern Cal TRACON
18:46 37.6667 -122.4833 302° West 253 291 5,300 2,800 Climbing Northern Cal TRACON
18:47 37.6500 -122.5667 256° West 259 298 8,200 2,722 Climbing Northern Cal TRACON
18:48 37.6042 -122.5542 168° South 254 292 9,700 2,082 Climbing Oakland Center
18:49 37.5339 -122.5056 151° Southeast 282 325 11,600 1,805 Climbing Oakland Center
18:50 37.4633 -122.4317 140° Southeast 330 380 13,400 1,756 Climbing Oakland Center
18:51 37.2991 -122.1649 122° Southeast  Level FlightAware Approximate
18:51 37.3906 -122.3489 138° Southeast 354 407 15,200  Level Oakland Center
18:52 37.3142 -122.2619 138° Southeast 369 425 17,300 2,000 Climbing Oakland Center
18:53 37.2372 -122.1750 138° Southeast 373 429 19,300 1,951 Climbing Oakland Center
18:54 37.1414 -122.0683 138° Southeast 384 442 21,300 1,623 Climbing Oakland Center
18:55 37.0603 -121.9786 139° Southeast 388 447 22,600 1,317 Climbing Oakland Center
18:56 36.9775 -121.8850 138° Southeast 399 459 24,000 1,122 Climbing Oakland Center
18:57 36.8914 -121.7928 139° Southeast 407 468 24,900 492 Climbing Oakland Center
18:58 36.8022 -121.6983 140° Southeast 423 487 25,000 49 Climbing Oakland Center
18:59 36.7086 -121.5931 138° Southeast 443 510 25,000 -49 Level Oakland Center
19:00 36.6128 -121.4872 138° Southeast 457 526 24,900 -49 Descending Oakland Center
19:01 36.5186 -121.3847 139° Southeast 452 520 24,900  Level Oakland Center
19:02 36.4258 -121.2797 138° Southeast 450 518 24,900  Level Oakland Center
19:03 36.3128 -121.1592 139° Southeast 447 514 24,900  Level Oakland Center
19:04 36.2189 -121.0569 139° Southeast 446 513 24,900  Level Oakland Center
19:05 36.1256 -120.9564 139° Southeast 445 512 24,900  Level Oakland Center
19:06 36.0317 -120.8547 139° Southeast 447 514 24,900 49 Level Oakland Center
19:07 35.9375 -120.7556 140° Southeast 445 512 25,000  Climbing Oakland Center
19:08 35.8425 -120.6550 139° Southeast 448 516 24,900  Descending Oakland Center
19:09 35.7475 -120.5531 139° Southeast 450 518 25,000 49 Climbing Oakland Center
19:10 35.6531 -120.4536 139° Southeast 445 512 25,000 -49 Level Oakland Center
19:11 35.5589 -120.3531 139° Southeast 446 513 24,900  Descending Oakland Center
19:12 35.4603 -120.2500 140° Southeast 473 544 25,000 49 Climbing Oakland Center
19:13 35.3619 -120.1447 139° Southeast 462 532 25,000  Level Oakland Center
19:14 35.2653 -120.0447 140° Southeast 452 520 25,000 -49 Level Oakland Center
19:15 35.1694 -119.9453 140° Southeast 451 519 24,900 -49 Descending Oakland Center
19:16 35.0767 -119.8439 138° Southeast 449 517 24,900 49 Level Oakland Center
19:17 34.9775 -119.7094 132° Southeast 446 513 25,000 -885 Climbing Oakland Center
19:18 34.8928 -119.5956 132° Southeast 452 520 23,100 -2,098 Descending Oakland Center
19:19 34.8103 -119.4850 132° Southeast 444 511 20,700 -2,244 Descending Oakland Center
19:20 34.7300 -119.3769 132° Southeast 435 501 18,500 -2,164 Descending Oakland Center
19:21 34.6531 -119.2747 132° Southeast 424 488 16,300 -2,056 Descending Oakland Center
19:23 34.5608 -119.1511 132° Southeast 346 398 13,600 -1,792 Descending Los Angeles Center
19:24 34.5019 -119.0722 132° Southeast 316 364 12,000 -1,839 Descending Los Angeles Center
19:25 34.4447 -118.9992 134° Southeast 300 345 9,800 -2,129 Descending Los Angeles Center
19:26 34.3922 -118.9269 131° Southeast 286 329 7,600 -1,805 Descending Los Angeles Center
19:27 34.3439 -118.8494 127° Southeast 286 329 6,100 -780 Descending Los Angeles Center
19:28 34.2986 -118.7778 127° Southeast 271 312 6,000 -339 Descending Los Angeles Center
19:29 34.2578 -118.7081 125° Southeast 257 296 5,400 -968 Descending Los Angeles Center
19:30 34.2139 -118.6264 123° Southeast 244 281 4,000 -780 Descending Los Angeles Center
19:31 34.2028 -118.5483 100° East 235 270 3,800 -732 Descending Los Angeles Center
19:32 34.1992 -118.4803 94° East 213 245 2,500 -1,065 Descending Los Angeles Center
19:33 34.1992 -118.4253 90° East 175 201 1,600 -677 Descending Los Angeles Center
19:34 34.1978 -118.3753 92° East 159 183 1,100 -484 Descending Los Angeles Center
19:36 34.2000 -118.3500 94° East  Level FlightAware Approximate
19:43 34.2007 -118.3587 94° East  Level Estimated

Login

Don't have an account? Register now (free) for customized features, flight alerts, and more!